Time;durP1;ratioP1;P1;durP2;ratioP2;P2;SDS_P1;SDS_P2;PMS_P1;PMS_P2;Temp;Humidity;BMP_temperature;BMP_pressure;BME280_temperature;BME280_humidity;BME280_pressure;Samples;Min_cycle;Max_cycle;Signal;HPM_P1;HPM_P2
2022/06/02 00:00:15;;;;;;;12.63;11.23;;;9.80;99.90;;;;;;2615927;54;20392;-76
2022/06/02 00:03:21;;;;;;;13.93;12.50;;;9.80;99.90;;;;;;2614978;39;20866;-78
2022/06/02 00:06:05;;;;;;;12.10;10.90;;;9.80;99.90;;;;;;2613626;54;20401;-77
2022/06/02 00:08:41;;;;;;;12.20;10.93;;;9.80;99.90;;;;;;2614461;39;21074;-77
2022/06/02 00:11:25;;;;;;;15.20;12.40;;;9.60;99.90;;;;;;2614217;54;20522;-78
2022/06/02 00:14:12;;;;;;;12.97;11.70;;;9.60;99.90;;;;;;2612938;54;20390;-77
2022/06/02 00:17:06;;;;;;;14.37;12.27;;;9.60;99.90;;;;;;2613993;54;20427;-77
2022/06/02 00:19:50;;;;;;;13.30;11.33;;;9.60;99.90;;;;;;2614921;54;20421;-77
2022/06/02 00:23:03;;;;;;;15.23;12.17;;;9.60;99.90;;;;;;2614884;54;20491;-77
2022/06/02 00:25:33;;;;;;;20.90;13.30;;;9.50;99.90;;;;;;2553318;54;20521;-74
2022/06/02 00:28:25;;;;;;;13.93;12.40;;;9.50;99.90;;;;;;2610234;47;20431;-76
2022/06/02 00:30:55;;;;;;;13.60;12.20;;;9.50;99.90;;;;;;2610572;54;20392;-77
2022/06/02 00:33:28;;;;;;;14.50;13.10;;;9.50;99.90;;;;;;2611952;39;20897;-79
2022/06/02 00:36:23;;;;;;;18.00;12.07;;;9.40;99.90;;;;;;2609392;39;20864;-77
2022/06/02 00:38:50;;;;;;;11.77;10.53;;;9.40;99.90;;;;;;2611026;54;20411;-77
2022/06/02 00:41:24;;;;;;;12.37;10.97;;;9.40;99.90;;;;;;2610096;54;20410;-77
2022/06/02 00:44:09;;;;;;;13.33;11.27;;;9.30;99.90;;;;;;2610754;47;20451;-77
2022/06/02 00:46:35;;;;;;;21.03;11.43;;;9.20;99.90;;;;;;2609870;54;20406;-77
2022/06/02 00:49:14;;;;;;;12.60;11.30;;;9.20;99.90;;;;;;2610277;54;20395;-77
2022/06/02 00:51:40;;;;;;;12.03;10.77;;;9.00;99.90;;;;;;2610831;54;20406;-75
2022/06/02 00:57:32;;;;;;;16.00;13.10;;;9.00;99.90;;;;;;2610479;54;20185;-73
2022/06/02 01:00:11;;;;;;;14.10;12.03;;;9.00;99.90;;;;;;2611542;54;20408;-77
2022/06/02 01:03:06;;;;;;;16.40;12.77;;;9.00;99.90;;;;;;2611199;54;20429;-77
2022/06/02 01:05:53;;;;;;;17.30;13.37;;;9.10;99.90;;;;;;2610188;54;20435;-77
2022/06/02 01:08:37;;;;;;;17.67;15.60;;;9.10;99.90;;;;;;2610936;54;20387;-77
2022/06/02 01:11:46;;;;;;;15.33;13.80;;;9.00;99.90;;;;;;2611603;54;20398;-78
2022/06/02 01:14:17;;;;;;;15.67;14.03;;;9.00;99.90;;;;;;2610236;54;20433;-77
2022/06/02 01:17:00;;;;;;;22.17;17.30;;;9.00;99.90;;;;;;2609424;54;20419;-77
2022/06/02 01:19:35;;;;;;;16.33;14.60;;;9.00;99.90;;;;;;2609640;54;20945;-77
2022/06/02 01:22:14;;;;;;;18.90;15.03;;;9.00;99.90;;;;;;2610883;54;20424;-76
2022/06/02 01:25:17;;;;;;;20.83;15.80;;;9.00;99.90;;;;;;2608437;47;20447;-76
2022/06/02 01:27:58;;;;;;;15.70;13.57;;;9.00;99.90;;;;;;2612429;54;20414;-77
2022/06/02 01:30:39;;;;;;;18.83;15.60;;;8.70;99.90;;;;;;2612256;54;20433;-78
2022/06/02 01:33:59;;;;;;;23.70;16.73;;;8.70;99.90;;;;;;2613067;54;20506;-77
2022/06/02 01:36:42;;;;;;;20.57;16.50;;;8.60;99.90;;;;;;2609848;54;20420;-77
2022/06/02 01:39:30;;;;;;;17.33;15.43;;;8.50;99.90;;;;;;2609875;54;20429;-77
2022/06/02 01:42:14;;;;;;;17.70;15.77;;;8.60;99.90;;;;;;2609970;54;20403;-73
2022/06/02 01:45:20;;;;;;;20.00;15.40;;;8.60;99.90;;;;;;2608828;54;20947;-73
2022/06/02 01:47:56;;;;;;;19.57;16.13;;;8.50;99.90;;;;;;2609275;54;20392;-73
2022/06/02 01:50:54;;;;;;;21.30;16.57;;;8.40;99.90;;;;;;2610117;54;20718;-73
2022/06/02 01:53:44;;;;;;;21.40;18.17;;;8.40;99.90;;;;;;2608962;54;20432;-73
2022/06/02 01:56:31;;;;;;;19.90;16.87;;;8.50;99.90;;;;;;2609635;54;20393;-73
2022/06/02 01:59:17;;;;;;;21.57;16.77;;;8.50;99.90;;;;;;2609934;54;20394;-73
2022/06/02 02:01:50;;;;;;;23.27;17.70;;;8.50;99.90;;;;;;2609412;54;20371;-74
2022/06/02 02:04:45;;;;;;;37.33;18.40;;;8.60;99.90;;;;;;2607968;47;20445;-75
2022/06/02 02:07:29;;;;;;;21.00;17.67;;;8.50;99.90;;;;;;2610213;46;20419;-76
2022/06/02 02:10:04;;;;;;;19.73;17.73;;;8.60;99.90;;;;;;2609435;54;20402;-76
2022/06/02 02:13:07;;;;;;;20.27;17.70;;;8.50;99.90;;;;;;2609854;54;20406;-74
2022/06/02 02:15:41;;;;;;;22.40;17.90;;;8.30;99.90;;;;;;2610168;54;20410;-74
2022/06/02 02:18:20;;;;;;;23.07;18.30;;;8.30;99.90;;;;;;2610428;54;20396;-74
2022/06/02 02:21:10;;;;;;;22.07;18.07;;;8.30;99.90;;;;;;2610455;54;21005;-74
2022/06/02 02:23:54;;;;;;;27.50;19.77;;;8.40;99.90;;;;;;2612235;54;20395;-75
2022/06/02 02:26:27;;;;;;;24.70;19.73;;;8.40;99.90;;;;;;2612501;54;20996;-76
2022/06/02 02:29:22;;;;;;;21.97;18.80;;;8.30;99.90;;;;;;2613837;54;20378;-76
2022/06/02 02:32:25;;;;;;;23.80;17.97;;;8.30;99.90;;;;;;2611970;54;20439;-76
2022/06/02 02:35:10;;;;;;;23.00;19.27;;;8.40;99.90;;;;;;2614159;54;20405;-78
2022/06/02 02:37:43;;;;;;;22.20;19.80;;;8.40;99.90;;;;;;2613354;54;20855;-77
2022/06/02 02:40:29;;;;;;;25.13;21.10;;;8.40;99.90;;;;;;2615435;54;20368;-80
2022/06/02 02:43:14;;;;;;;27.97;21.17;;;8.30;99.90;;;;;;2615820;54;20406;-77
2022/06/02 02:46:03;;;;;;;23.00;19.03;;;8.10;99.90;;;;;;2615200;54;20415;-76
2022/06/02 02:49:08;;;;;;;22.83;19.20;;;8.00;99.90;;;;;;2613282;39;20812;-75
2022/06/02 02:51:47;;;;;;;24.20;18.53;;;8.00;99.90;;;;;;2614249;54;20406;-74
2022/06/02 02:54:21;;;;;;;22.00;18.90;;;8.10;99.90;;;;;;2613374;54;20406;-74
2022/06/02 02:56:59;;;;;;;20.40;18.10;;;8.10;99.90;;;;;;2614896;54;20403;-75
2022/06/02 02:59:38;;;;;;;23.87;17.60;;;8.10;99.90;;;;;;2614525;54;20538;-76
2022/06/02 03:02:15;;;;;;;22.53;19.57;;;8.10;99.90;;;;;;2612525;54;20954;-76
2022/06/02 03:04:56;;;;;;;21.00;18.23;;;8.00;99.90;;;;;;2611499;54;20426;-74
2022/06/02 03:07:22;;;;;;;23.87;19.73;;;7.90;99.90;;;;;;2612006;54;20482;-74
2022/06/02 03:10:04;;;;;;;29.90;20.47;;;7.70;99.90;;;;;;2612234;54;20399;-76
2022/06/02 03:12:38;;;;;;;25.83;20.30;;;7.80;99.90;;;;;;2611524;54;20470;-74
2022/06/02 03:15:20;;;;;;;20.80;17.67;;;8.00;99.90;;;;;;2609474;54;20421;-73
2022/06/02 03:18:02;;;;;;;25.17;19.77;;;8.00;99.90;;;;;;2610654;54;20431;-74
2022/06/02 03:20:59;;;;;;;25.17;19.80;;;8.00;99.90;;;;;;2612450;54;20507;-74
2022/06/02 03:24:01;;;;;;;25.80;19.20;;;8.00;99.90;;;;;;2609138;54;21092;-74
2022/06/02 03:26:45;;;;;;;24.87;20.00;;;7.90;99.90;;;;;;2610731;54;20518;-74
2022/06/02 03:29:19;;;;;;;26.10;19.50;;;7.80;99.90;;;;;;2613037;54;20391;-79
2022/06/02 03:32:06;;;;;;;23.17;20.57;;;7.90;99.90;;;;;;2612571;47;20604;-78
2022/06/02 03:34:35;;;;;;;26.37;20.90;;;7.80;99.90;;;;;;2613019;39;20664;-80
2022/06/02 03:37:20;;;;;;;28.63;20.70;;;7.80;99.90;;;;;;2613357;54;20447;-78
2022/06/02 03:39:46;;;;;;;24.57;20.07;;;8.00;99.90;;;;;;2611230;54;20426;-74
2022/06/02 03:42:14;;;;;;;23.67;20.57;;;7.90;99.90;;;;;;2610431;54;20374;-74
2022/06/02 03:44:41;;;;;;;21.77;19.40;;;8.00;99.90;;;;;;2612762;54;20246;-79
2022/06/02 03:47:13;;;;;;;27.60;21.93;;;7.90;99.90;;;;;;2613339;54;20509;-79
2022/06/02 03:50:01;;;;;;;27.03;21.80;;;7.90;99.90;;;;;;2611832;47;20870;-79
2022/06/02 03:52:45;;;;;;;26.60;21.47;;;8.00;99.90;;;;;;2613215;54;21032;-79
2022/06/02 03:55:43;;;;;;;28.50;22.37;;;8.10;99.90;;;;;;2614240;54;20383;-79
2022/06/02 03:58:09;;;;;;;25.07;20.20;;;7.90;99.90;;;;;;2613285;54;20381;-76
2022/06/02 04:00:58;;;;;;;27.53;20.67;;;8.00;99.90;;;;;;2611970;54;20422;-76
2022/06/02 04:03:41;;;;;;;24.60;20.77;;;8.00;99.90;;;;;;2610425;54;20390;-75
2022/06/02 04:06:23;;;;;;;23.73;21.23;;;8.20;99.90;;;;;;2610999;54;20402;-74
2022/06/02 04:08:53;;;;;;;28.93;22.60;;;8.10;99.90;;;;;;2610756;54;20407;-73
2022/06/02 04:14:57;;;;;;;29.60;22.60;;;8.00;99.90;;;;;;2611697;54;20550;-75
2022/06/02 04:17:26;;;;;;;31.87;23.70;;;8.10;99.90;;;;;;2610832;54;20375;-76
2022/06/02 04:23:23;;;;;;;31.27;23.83;;;8.00;99.90;;;;;;2611966;54;20403;-78
2022/06/02 04:25:48;;;;;;;35.07;24.73;;;8.10;99.90;;;;;;2611746;54;20537;-78
2022/06/02 04:28:37;;;;;;;34.50;26.67;;;8.10;99.90;;;;;;2611522;54;20992;-74
2022/06/02 04:31:15;;;;;;;37.33;26.60;;;8.10;99.90;;;;;;2612425;39;20517;-74
2022/06/02 04:33:50;;;;;;;37.60;25.97;;;8.20;99.90;;;;;;2611473;54;20386;-77
2022/06/02 04:36:44;;;;;;;31.33;25.07;;;8.30;99.90;;;;;;2611261;54;20507;-77
2022/06/02 04:39:37;;;;;;;36.50;27.10;;;8.40;99.90;;;;;;2613263;54;20407;-75
2022/06/02 04:42:09;;;;;;;36.97;28.00;;;8.50;99.90;;;;;;2611570;54;20410;-75
2022/06/02 04:45:13;;;;;;;35.80;28.13;;;8.60;99.90;;;;;;2614075;54;20381;-80
2022/06/02 04:48:03;;;;;;;33.17;25.70;;;8.90;99.90;;;;;;2612823;54;20403;-77
2022/06/02 04:50:42;;;;;;;39.43;31.60;;;9.00;99.90;;;;;;2610320;39;20789;-73
2022/06/02 04:53:27;;;;;;;39.30;28.27;;;9.30;99.90;;;;;;2611455;54;20466;-73
2022/06/02 04:56:26;;;;;;;35.50;27.00;;;9.50;99.90;;;;;;2610577;54;20396;-74
2022/06/02 04:59:03;;;;;;;37.17;28.93;;;9.80;99.90;;;;;;2612469;54;20375;-77
2022/06/02 05:01:30;;;;;;;37.73;26.60;;;10.20;99.90;;;;;;2612030;54;20375;-77
2022/06/02 05:04:19;;;;;;;34.30;26.10;;;10.60;99.90;;;;;;2612725;54;20422;-77
2022/06/02 05:06:48;;;;;;;35.77;23.80;;;11.10;99.90;;;;;;2611479;54;20390;-77
2022/06/02 05:09:17;;;;;;;30.70;24.90;;;11.50;99.90;;;;;;2609315;54;20409;-78
2022/06/02 05:11:52;;;;;;;26.37;22.70;;;12.00;99.90;;;;;;2610496;54;20384;-78
2022/06/02 05:14:41;;;;;;;26.80;20.70;;;12.20;99.90;;;;;;2609785;54;21310;-77
2022/06/02 05:17:30;;;;;;;29.23;23.23;;;12.20;99.90;;;;;;2609728;54;20459;-78
2022/06/02 05:20:05;;;;;;;31.70;23.30;;;12.20;99.90;;;;;;2611450;39;20790;-79
2022/06/02 05:22:40;;;;;;;25.40;22.27;;;12.30;99.90;;;;;;2611707;54;20406;-80
2022/06/02 05:25:18;;;;;;;22.50;18.63;;;12.60;99.90;;;;;;2610574;46;20440;-78
2022/06/02 05:27:55;;;;;;;21.33;19.10;;;12.90;99.90;;;;;;2611154;39;20910;-77
2022/06/02 05:30:25;;;;;;;20.10;17.77;;;13.20;99.90;;;;;;2608751;54;20426;-75
2022/06/02 05:33:16;;;;;;;21.30;18.37;;;13.10;99.90;;;;;;2608695;54;20404;-78
2022/06/02 05:36:12;;;;;;;23.47;20.07;;;13.20;99.90;;;;;;2611179;54;20415;-77
2022/06/02 05:38:54;;;;;;;22.67;17.73;;;13.10;99.90;;;;;;2609854;54;20403;-75
2022/06/02 05:41:30;;;;;;;22.57;18.90;;;13.00;99.90;;;;;;2607746;54;20391;-74
2022/06/02 05:44:23;;;;;;;21.10;18.53;;;13.10;99.90;;;;;;2609582;54;20400;-76
2022/06/02 05:46:55;;;;;;;19.33;17.30;;;13.60;99.90;;;;;;2609480;54;20404;-75
2022/06/02 05:49:33;;;;;;;21.03;17.10;;;14.00;99.90;;;;;;2607400;47;20893;-74
2022/06/02 05:52:31;;;;;;;16.73;15.03;;;14.10;99.90;;;;;;2607252;54;20448;-75
2022/06/02 05:55:14;;;;;;;18.80;16.80;;;14.60;99.90;;;;;;2608308;54;20404;-80
2022/06/02 05:57:57;;;;;;;18.63;16.53;;;15.20;99.90;;;;;;2609201;54;20399;-80
2022/06/02 06:00:25;;;;;;;19.30;15.63;;;15.50;99.90;;;;;;2607875;54;20514;-79
2022/06/02 06:03:09;;;;;;;17.87;16.23;;;15.50;99.90;;;;;;2607732;54;20395;-76
2022/06/02 06:06:06;;;;;;;19.83;15.43;;;15.70;99.90;;;;;;2605730;54;20986;-76
2022/06/02 06:09:04;;;;;;;19.30;16.97;;;15.60;99.90;;;;;;2604704;54;21001;-75
2022/06/02 06:11:52;;;;;;;17.97;16.07;;;15.50;99.90;;;;;;2603999;54;20877;-74
2022/06/02 06:14:40;;;;;;;17.57;15.63;;;16.10;99.90;;;;;;2606159;54;20476;-79
2022/06/02 06:17:11;;;;;;;16.10;14.50;;;16.40;99.90;;;;;;2608275;54;20397;-79
2022/06/02 06:19:56;;;;;;;17.53;15.90;;;16.20;99.90;;;;;;2607416;54;20394;-76
2022/06/02 06:22:51;;;;;;;16.83;15.10;;;16.40;99.90;;;;;;2607371;46;20513;-74
2022/06/02 06:26:10;;;;;;;17.23;15.43;;;16.70;99.90;;;;;;2610235;54;21337;-76
2022/06/02 06:29:07;;;;;;;16.53;14.83;;;16.90;99.90;;;;;;2607564;54;20414;-78
2022/06/02 06:31:42;;;;;;;15.37;14.07;;;17.10;99.90;;;;;;2610580;54;21044;-78
2022/06/02 06:34:21;;;;;;;16.37;14.87;;;17.60;99.90;;;;;;2609961;47;20455;-79
2022/06/02 06:37:00;;;;;;;16.73;15.23;;;17.80;97.30;;;;;;2612819;54;20415;-80
2022/06/02 06:39:58;;;;;;;16.87;15.30;;;17.80;94.80;;;;;;2615103;47;20406;-78
2022/06/02 06:42:38;;;;;;;17.30;15.60;;;18.10;85.00;;;;;;2609053;54;21080;-81
2022/06/02 06:45:25;;;;;;;16.63;15.03;;;18.00;90.00;;;;;;2605626;39;20540;-74
2022/06/02 06:47:58;;;;;;;15.43;14.00;;;17.70;92.50;;;;;;2607494;54;20433;-74
2022/06/02 06:50:40;;;;;;;16.67;15.00;;;18.20;74.30;;;;;;2609080;39;20786;-75
2022/06/02 06:53:32;;;;;;;14.70;13.27;;;18.00;74.60;;;;;;2605750;47;20851;-75
2022/06/02 06:56:09;;;;;;;15.63;14.10;;;18.10;70.90;;;;;;2606584;54;20507;-75
2022/06/02 06:58:54;;;;;;;16.53;14.97;;;18.20;69.40;;;;;;2607401;54;20406;-77
2022/06/02 07:01:31;;;;;;;17.77;16.07;;;18.30;57.00;;;;;;2608103;54;20538;-77
2022/06/02 07:04:32;;;;;;;16.63;13.73;;;18.50;57.40;;;;;;2608382;54;20458;-77
2022/06/02 07:07:26;;;;;;;16.00;14.40;;;18.80;50.30;;;;;;2607651;54;20403;-78
2022/06/02 07:10:19;;;;;;;15.20;13.37;;;18.90;45.70;;;;;;2609844;54;20418;-77
2022/06/02 07:12:54;;;;;;;18.13;14.43;;;18.80;42.60;;;;;;2608839;54;20435;-76
2022/06/02 07:16:02;;;;;;;17.20;13.97;;;18.50;46.90;;;;;;2607675;54;20410;-76
2022/06/02 07:18:54;;;;;;;15.00;13.70;;;18.80;39.50;;;;;;2608146;54;20526;-77
2022/06/02 07:21:23;;;;;;;14.77;13.50;;;19.30;40.40;;;;;;2608399;54;20399;-76
2022/06/02 07:24:22;;;;;;;14.50;13.30;;;19.70;28.40;;;;;;2613905;54;20398;-78
2022/06/02 07:27:21;;;;;;;13.93;12.73;;;18.80;30.30;;;;;;2613648;54;20460;-80
2022/06/02 07:29:46;;;;;;;13.83;12.53;;;17.80;42.20;;;;;;2613322;54;20525;-77
2022/06/02 07:32:22;;;;;;;14.00;12.70;;;17.90;44.90;;;;;;2613460;54;20389;-77
2022/06/02 07:35:05;;;;;;;14.27;12.83;;;18.30;39.10;;;;;;2614044;54;20398;-80
2022/06/02 07:37:40;;;;;;;13.80;12.60;;;18.50;37.00;;;;;;2613937;54;20398;-80
2022/06/02 07:44:24;;;;;;;12.77;11.70;;;18.60;30.60;;;;;;2620154;54;20397;-75
2022/06/02 07:50:37;;;;;;;12.07;11.17;;;18.90;28.10;;;;;;2619424;54;20411;-76
2022/06/02 08:03:40;;;;;;;10.23;9.23;;;19.50;19.00;;;;;;2620006;54;20433;-76
2022/06/02 08:10:00;;;;;;;9.17;8.47;;;19.90;10.60;;;;;;2620449;54;20441;-76
2022/06/02 08:16:09;;;;;;;8.97;8.10;;;21.30;6.90;;;;;;2620755;54;20530;-75
2022/06/02 08:32:35;;;;;;;9.20;8.60;;;22.50;1.00;;;;;;2618920;46;20409;-77
2022/06/02 08:53:41;;;;;;;9.53;8.83;;;23.10;1.00;;;;;;2614902;39;20793;-78
2022/06/02 09:07:09;;;;;;;9.23;8.63;;;21.20;1.00;;;;;;2614316;54;20959;-77
2022/06/02 09:17:07;;;;;;;8.47;7.97;;;22.20;1.00;;;;;;2612607;54;20416;-76
2022/06/02 09:45:14;;;;;;;8.10;7.57;;;18.00;6.70;;;;;;2611649;54;20417;-77
2022/06/02 09:48:17;;;;;;;8.40;7.70;;;17.90;6.70;;;;;;2610975;47;20445;-75
2022/06/02 09:55:11;;;;;;;7.60;6.97;;;18.30;3.40;;;;;;2614003;31;20991;-77
2022/06/02 10:05:01;;;;;;;6.03;5.63;;;18.90;1.50;;;;;;2612429;47;20510;-77
2022/06/02 10:14:35;;;;;;;5.30;4.97;;;19.90;1.00;;;;;;2614583;31;21021;-77
2022/06/02 10:35:07;;;;;;;5.73;5.43;;;23.40;1.00;;;;;;2613093;54;20485;-78
2022/06/02 10:45:28;;;;;;;7.37;6.77;;;21.10;1.00;;;;;;2613261;54;21013;-77
2022/06/02 10:51:46;;;;;;;7.67;7.07;;;20.30;1.00;;;;;;2613243;47;20395;-78
2022/06/02 11:12:09;;;;;;;6.60;6.20;;;19.90;1.00;;;;;;2613300;47;20415;-76
2022/06/02 11:29:04;;;;;;;6.47;6.07;;;23.40;1.00;;;;;;2613510;54;20407;-76
2022/06/02 11:46:53;;;;;;;7.47;6.87;;;25.30;1.00;;;;;;2613610;54;21070;-76
2022/06/02 11:53:02;;;;;;;6.73;6.23;;;25.50;1.00;;;;;;2614147;54;20399;-76
2022/06/02 11:55:39;;;;;;;6.83;6.33;;;25.30;1.00;;;;;;2600230;54;20502;-78
2022/06/02 11:58:43;;;;;;;6.43;5.80;;;25.30;1.00;;;;;;2611529;46;20600;-78
2022/06/02 12:01:47;;;;;;;6.43;5.87;;;24.10;1.00;;;;;;2612682;54;20412;-78
2022/06/02 12:04:25;;;;;;;7.10;6.60;;;23.20;1.00;;;;;;2611846;54;20417;-77
2022/06/02 12:07:13;;;;;;;7.07;6.47;;;23.50;1.00;;;;;;2611258;54;20429;-78
2022/06/02 12:10:11;;;;;;;6.87;6.47;;;22.80;1.00;;;;;;2612712;54;20523;-78
2022/06/02 12:12:57;;;;;;;9.37;6.30;;;22.50;1.00;;;;;;2612395;47;20981;-78
2022/06/02 12:15:34;;;;;;;6.23;5.93;;;22.50;1.00;;;;;;2616042;54;20407;-79
2022/06/02 12:18:26;;;;;;;6.97;6.47;;;23.30;1.00;;;;;;2613259;54;21013;-77
2022/06/02 12:21:23;;;;;;;6.20;5.90;;;24.50;1.00;;;;;;2612339;39;21015;-78
2022/06/02 12:24:23;;;;;;;5.80;5.50;;;24.10;1.00;;;;;;2611909;39;20750;-77
2022/06/02 12:27:01;;;;;;;4.93;4.60;;;24.20;1.00;;;;;;2611363;46;20423;-75
2022/06/02 12:29:33;;;;;;;6.83;5.93;;;23.90;1.00;;;;;;2612021;54;20409;-78
2022/06/02 12:32:05;;;;;;;6.07;5.77;;;23.80;1.00;;;;;;2612109;54;20531;-79
2022/06/02 12:34:51;;;;;;;6.23;5.73;;;24.30;1.00;;;;;;2612839;54;20427;-80
2022/06/02 12:37:43;;;;;;;6.83;6.20;;;24.70;1.00;;;;;;2610931;54;21326;-78
2022/06/02 12:40:33;;;;;;;5.67;5.37;;;25.10;1.00;;;;;;2612519;39;20882;-78
2022/06/02 12:43:31;;;;;;;6.00;5.60;;;25.10;1.00;;;;;;2611687;54;20412;-77
2022/06/02 12:46:23;;;;;;;7.30;6.90;;;25.80;1.00;;;;;;2611271;46;20444;-77
2022/06/02 12:49:07;;;;;;;6.43;6.03;;;25.20;1.00;;;;;;2610399;47;20439;-78
2022/06/02 12:52:17;;;;;;;7.70;7.20;;;24.30;1.00;;;;;;2611080;54;20423;-76
2022/06/02 12:55:20;;;;;;;8.40;7.63;;;22.90;1.00;;;;;;2610009;54;20458;-78
2022/06/02 12:57:53;;;;;;;8.17;7.57;;;22.10;1.00;;;;;;2611872;54;20878;-79
2022/06/02 13:00:50;;;;;;;7.50;7.10;;;21.80;1.00;;;;;;2611450;39;20777;-78
2022/06/02 13:03:31;;;;;;;7.10;6.70;;;22.50;1.00;;;;;;2610777;54;20449;-78
2022/06/02 13:06:21;;;;;;;6.47;5.90;;;23.00;1.00;;;;;;2611396;46;20429;-78
2022/06/02 13:09:11;;;;;;;8.07;7.43;;;23.70;1.00;;;;;;2611100;46;20604;-79
2022/06/02 13:12:01;;;;;;;6.47;6.07;;;24.10;1.00;;;;;;2611020;39;20866;-79
2022/06/02 13:15:08;;;;;;;6.00;5.70;;;24.70;1.00;;;;;;2611693;54;20428;-78
2022/06/02 13:17:37;;;;;;;6.30;6.00;;;24.90;1.00;;;;;;2611763;39;20872;-78
2022/06/02 13:20:03;;;;;;;6.50;6.20;;;25.20;1.00;;;;;;2611269;54;20415;-76
2022/06/02 13:22:56;;;;;;;6.80;6.30;;;24.90;1.00;;;;;;2611442;54;20507;-76
2022/06/02 13:25:50;;;;;;;5.60;5.33;;;24.00;1.00;;;;;;2611753;54;20216;-78
2022/06/02 13:28:51;;;;;;;6.97;6.40;;;24.40;1.00;;;;;;2612435;54;20451;-78
2022/06/02 13:31:42;;;;;;;7.50;6.80;;;24.80;1.00;;;;;;2611871;47;20422;-79
2022/06/02 13:34:45;;;;;;;6.40;5.90;;;24.90;1.00;;;;;;2611502;46;20420;-78
2022/06/02 13:38:02;;;;;;;5.93;5.63;;;24.40;1.00;;;;;;2611283;54;20423;-80
2022/06/02 13:40:49;;;;;;;6.60;6.30;;;24.80;1.00;;;;;;2611030;54;20415;-78
2022/06/02 13:43:37;;;;;;;5.20;4.90;;;24.80;1.00;;;;;;2610760;54;20515;-78
2022/06/02 13:46:41;;;;;;;5.60;5.10;;;24.90;1.00;;;;;;2610976;54;20395;-78
2022/06/02 13:49:48;;;;;;;5.30;5.00;;;24.60;1.00;;;;;;2611855;54;20451;-77
2022/06/02 13:52:47;;;;;;;6.10;5.57;;;24.70;1.00;;;;;;2611903;54;20454;-77
2022/06/02 13:58:36;;;;;;;5.43;5.10;;;25.00;1.00;;;;;;2611454;54;20442;-77
2022/06/02 14:01:20;;;;;;;6.33;5.60;;;24.90;1.00;;;;;;2612052;54;20522;-77
2022/06/02 14:04:08;;;;;;;4.90;4.60;;;25.10;1.00;;;;;;2611481;54;20411;-76
2022/06/02 14:07:06;;;;;;;6.07;5.60;;;25.20;1.00;;;;;;2610455;54;20449;-77
2022/06/02 14:09:46;;;;;;;5.83;5.33;;;25.20;1.00;;;;;;2610864;54;20828;-76
2022/06/02 14:12:30;;;;;;;4.57;4.37;;;24.50;1.00;;;;;;2610694;39;20801;-77
2022/06/02 14:15:09;;;;;;;5.17;4.90;;;24.30;1.00;;;;;;2611102;54;20442;-77
2022/06/02 14:18:09;;;;;;;5.43;5.03;;;24.50;1.00;;;;;;2611515;39;21116;-78
2022/06/02 14:21:10;;;;;;;5.40;5.00;;;25.00;1.00;;;;;;2610578;54;20566;-77
2022/06/02 14:23:51;;;;;;;6.10;5.70;;;25.00;1.00;;;;;;2610898;54;20415;-77
2022/06/02 14:26:30;;;;;;;5.63;5.33;;;24.80;1.00;;;;;;2611296;54;20427;-76
2022/06/02 14:29:02;;;;;;;6.03;5.63;;;24.50;1.00;;;;;;2611948;31;20919;-76
2022/06/02 14:31:34;;;;;;;5.40;5.10;;;24.60;1.00;;;;;;2611374;54;20417;-77
2022/06/02 14:34:24;;;;;;;4.83;4.53;;;24.40;1.00;;;;;;2610051;54;20411;-77
2022/06/02 14:37:25;;;;;;;4.97;4.67;;;24.60;1.00;;;;;;2611335;54;20415;-77
2022/06/02 14:39:57;;;;;;;5.00;4.70;;;24.90;1.00;;;;;;2611229;39;20910;-77
2022/06/02 14:45:32;;;;;;;4.80;4.60;;;24.60;1.00;;;;;;2606664;47;20420;-79
2022/06/02 14:48:06;;;;;;;5.13;4.63;;;24.40;1.00;;;;;;2610177;54;20484;-80
2022/06/02 14:50:46;;;;;;;5.53;5.13;;;24.40;1.00;;;;;;2610459;54;20410;-80
2022/06/02 14:53:47;;;;;;;5.60;5.30;;;24.60;1.00;;;;;;2608738;54;20427;-77
2022/06/02 14:56:37;;;;;;;5.50;5.20;;;24.50;1.00;;;;;;2609879;54;20442;-76
2022/06/02 14:59:22;;;;;;;5.27;4.97;;;24.60;1.00;;;;;;2608244;54;20423;-76
2022/06/02 15:01:56;;;;;;;6.00;5.60;;;23.50;1.00;;;;;;2609689;54;20638;-77
2022/06/02 15:04:56;;;;;;;5.33;5.03;;;23.80;1.00;;;;;;2611163;54;20808;-77
2022/06/02 15:07:40;;;;;;;5.43;5.20;;;24.20;1.00;;;;;;2613155;54;20452;-77
2022/06/02 15:10:28;;;;;;;6.07;5.67;;;24.50;1.00;;;;;;2613046;54;20413;-77
2022/06/02 15:13:07;;;;;;;5.80;5.50;;;24.40;1.00;;;;;;2611664;47;21156;-77
2022/06/02 15:15:42;;;;;;;6.20;5.90;;;24.10;1.00;;;;;;2613343;54;20414;-78
2022/06/02 15:18:46;;;;;;;7.27;6.77;;;23.70;1.00;;;;;;2613470;39;21072;-79
2022/06/02 15:21:45;;;;;;;6.63;6.23;;;24.00;1.00;;;;;;2614262;54;20522;-76
2022/06/02 15:24:22;;;;;;;6.90;6.40;;;24.30;1.00;;;;;;2610759;54;20422;-76
2022/06/02 15:27:00;;;;;;;7.73;7.20;;;24.20;1.00;;;;;;2609812;54;20453;-76
2022/06/02 15:29:44;;;;;;;8.67;8.17;;;24.40;1.00;;;;;;2609758;54;20535;-80
2022/06/02 15:32:34;;;;;;;9.73;9.13;;;24.60;1.00;;;;;;2610601;54;20414;-80
2022/06/02 15:35:43;;;;;;;8.90;8.30;;;24.30;1.00;;;;;;2610560;54;20495;-78
2022/06/02 15:38:28;;;;;;;10.10;9.30;;;24.20;1.00;;;;;;2610430;54;20404;-78
2022/06/02 15:41:14;;;;;;;8.97;8.37;;;24.10;1.00;;;;;;2609693;54;20455;-78
2022/06/02 15:44:14;;;;;;;9.27;8.60;;;23.70;1.00;;;;;;2609407;54;20432;-76
2022/06/02 15:46:59;;;;;;;7.70;7.27;;;23.40;1.00;;;;;;2611168;54;20482;-83
2022/06/02 15:49:52;;;;;;;7.20;6.67;;;23.50;1.00;;;;;;2609721;54;20568;-80
2022/06/02 15:52:40;;;;;;;6.50;6.10;;;24.10;1.00;;;;;;2609590;39;20975;-81
2022/06/02 15:55:43;;;;;;;7.57;6.97;;;24.10;1.00;;;;;;2609321;47;21085;-81
2022/06/02 15:58:33;;;;;;;6.53;6.17;;;24.00;1.00;;;;;;2611051;39;20877;-80
2022/06/02 16:01:23;;;;;;;8.10;7.60;;;23.90;1.00;;;;;;2610893;31;20969;-79
2022/06/02 16:04:13;;;;;;;6.10;5.57;;;23.60;1.00;;;;;;2611273;39;20966;-81
2022/06/02 16:07:16;;;;;;;5.70;5.40;;;24.10;1.00;;;;;;2611205;39;20831;-79
2022/06/02 16:12:48;;;;;;;5.00;4.70;;;23.70;1.00;;;;;;2613624;54;20598;-78
2022/06/02 16:15:32;;;;;;;5.20;4.90;;;23.40;1.00;;;;;;2613412;54;20972;-79
2022/06/02 16:18:11;;;;;;;4.87;4.57;;;23.70;1.00;;;;;;2611049;54;20154;-79
2022/06/02 16:21:15;;;;;;;5.10;4.70;;;24.00;1.00;;;;;;2611227;54;20427;-79
2022/06/02 16:23:46;;;;;;;4.80;4.60;;;24.30;1.00;;;;;;2610039;39;20953;-79
2022/06/02 16:26:43;;;;;;;4.33;4.13;;;24.30;1.00;;;;;;2610796;54;20418;-80
2022/06/02 16:29:46;;;;;;;4.30;4.10;;;24.10;1.00;;;;;;2610461;54;20907;-77
2022/06/02 16:32:35;;;;;;;4.77;4.57;;;23.90;1.00;;;;;;2609222;54;21096;-76
2022/06/02 16:35:39;;;;;;;6.30;4.13;;;24.10;1.00;;;;;;2609775;54;20562;-77
2022/06/02 16:38:28;;;;;;;4.73;4.43;;;24.00;1.00;;;;;;2611098;54;20411;-76
2022/06/02 16:41:17;;;;;;;4.90;4.60;;;24.10;1.00;;;;;;2614240;46;20463;-81
2022/06/02 16:43:54;;;;;;;4.60;4.30;;;24.10;1.00;;;;;;2612336;54;20497;-79
2022/06/02 16:46:37;;;;;;;5.20;4.80;;;23.50;1.00;;;;;;2614008;54;20413;-79
2022/06/02 16:49:10;;;;;;;5.13;4.73;;;23.20;1.00;;;;;;2613911;54;20423;-77
2022/06/02 16:51:42;;;;;;;5.13;4.73;;;23.20;1.00;;;;;;2612487;54;20515;-78
2022/06/02 16:54:44;;;;;;;4.57;4.33;;;23.30;1.00;;;;;;2612817;39;20978;-79
2022/06/02 16:57:27;;;;;;;4.60;4.40;;;23.10;1.00;;;;;;2612843;47;20442;-79
2022/06/02 17:00:09;;;;;;;4.60;4.40;;;22.90;1.00;;;;;;2613170;54;20545;-75
2022/06/02 17:03:00;;;;;;;4.60;4.40;;;23.00;1.00;;;;;;2611419;54;20456;-75
2022/06/02 17:05:47;;;;;;;4.70;4.30;;;23.00;1.00;;;;;;2612967;54;20427;-78
2022/06/02 17:08:29;;;;;;;4.80;4.50;;;22.80;1.00;;;;;;2613642;54;20415;-78
2022/06/02 17:11:22;;;;;;;4.63;4.43;;;22.70;1.00;;;;;;2612167;54;20442;-77
2022/06/02 17:13:57;;;;;;;5.10;4.60;;;22.80;1.00;;;;;;2613105;39;20787;-76
2022/06/02 17:16:51;;;;;;;4.30;4.10;;;22.90;1.00;;;;;;2611799;54;20472;-75
2022/06/02 17:19:23;;;;;;;5.77;5.37;;;22.60;1.00;;;;;;2612368;46;20463;-77
2022/06/02 17:21:55;;;;;;;5.00;4.70;;;22.60;1.00;;;;;;2613285;54;20415;-79
2022/06/02 17:24:47;;;;;;;4.70;4.30;;;22.60;1.00;;;;;;2612741;39;20770;-75
2022/06/02 17:27:41;;;;;;;4.40;4.20;;;22.40;1.00;;;;;;2611979;54;20434;-76
2022/06/02 17:30:43;;;;;;;5.10;4.70;;;22.30;1.00;;;;;;2611884;54;21052;-79
2022/06/02 17:33:41;;;;;;;4.40;4.10;;;22.20;1.00;;;;;;2613639;54;20446;-78
2022/06/02 17:36:27;;;;;;;4.70;4.30;;;22.20;1.00;;;;;;2612984;39;20609;-75
2022/06/02 17:39:08;;;;;;;5.37;4.97;;;21.90;1.00;;;;;;2612477;54;20419;-75
2022/06/02 17:41:53;;;;;;;4.53;4.23;;;21.40;1.00;;;;;;2611430;54;21000;-76
2022/06/02 17:44:57;;;;;;;5.37;5.07;;;20.90;1.00;;;;;;2611912;47;20439;-80
2022/06/02 17:47:40;;;;;;;5.50;5.10;;;20.60;1.00;;;;;;2611066;54;20432;-79
2022/06/02 17:50:21;;;;;;;4.77;4.50;;;20.40;1.00;;;;;;2619988;54;20518;-77
2022/06/02 17:53:01;;;;;;;5.83;5.00;;;20.30;1.00;;;;;;2611932;47;20434;-76